Silver Wind — C6FG2 — position and weather

sailwx.info

Track history (hours):
 
Tides and Currents Weather Stations Pressure Air Temp Water Temp Dewpoint Dewpoint Depression Visibility Wind Speed Wind Dir Waves Ship Positions

Silver Wind

Operator: V Ships Leisure

Last reported at 2017-Apr-19 21:08 UTC. Time now 2017-Apr-24 11:20 UTC.
Position N 38°39' E 015°33'.

Length 156 m; draft 5.7 m.

Type: Passenger vessel. MMSI: 308814000.

Date/timePositionNaut miles runAvg speedWind from/ knotsBaromVisibWave heightAir tempDewpointWater temp
2017-Apr-19 21:08N 38°39' E 015°33'215.9
2017-Apr-19 20:59N 38°37' E 015°34'815.9
2017-Apr-19 20:29N 38°29' E 015°37'816.2
2017-Apr-19 20:01N 38°22' E 015°41'713.9
2017-Apr-19 19:31N 38°15' E 015°40'714.4
2017-Apr-19 19:00N 38°09' E 015°37'815.2
2017-Apr-19 18:31N 38°01' E 015°35'714.5
2017-Apr-19 18:00N 37°54' E 015°33'713.9
2017-Apr-19 17:30N 37°47' E 015°31'714.0
2017-Apr-19 16:59N 37°40' E 015°29'815.2
2017-Apr-19 16:27N 37°32' E 015°27'715.4
2017-Apr-19 16:00N 37°26' E 015°26'71 4.4
2017-Apr-18 23:48N 36°19' E 014°55'411.9
2017-Apr-18 23:30N 36°16' E 014°53'1411.3
2017-Apr-18 22:17N 36°05' E 014°43'311.5
2017-Apr-18 22:00N 36°03' E 014°41'611.5
2017-Apr-18 21:30N 35°58' E 014°37'510.7
2017-Apr-18 21:00N 35°54' E 014°32'0 0.0
2017-Apr-18 05:31N 35°54' E 014°31'5 9.1
2017-Apr-18 05:00N 35°58' E 014°33'817.2
2017-Apr-18 04:30N 36°05' E 014°26'917.3
2017-Apr-18 04:00N 36°11' E 014°18'917.4
2017-Apr-18 03:30N 36°17' E 014°11'917.7
2017-Apr-18 03:00N 36°23' E 014°03'12617.1
2017-Apr-17 19:40N 37°53' E 012°13'317.4
2017-Apr-17 19:29N 37°56' E 012°13'913.8
2017-Apr-17 18:51N 38°03' E 012°20'617.2
2017-Apr-17 18:30N 38°01' E 012°27'3 5.1
2017-Apr-17 18:00N 38°01' E 012°30'0 0.0
2017-Apr-17 17:25N 38°01' E 012°30'0 0.0
2017-Apr-17 16:49N 38°01' E 012°30'0 0.0
2017-Apr-17 16:10N 38°01' E 012°30'0 0.0
2017-Apr-17 15:52N 38°01' E 012°30'0 0.0
2017-Apr-17 15:22N 38°01' E 012°30'0 0.0
2017-Apr-17 14:55N 38°01' E 012°30'0 0.0
2017-Apr-17 14:28N 38°01' E 012°30'0 0.0
2017-Apr-17 13:28N 38°01' E 012°30'0 0.0
2017-Apr-17 12:58N 38°01' E 012°30'160 8.2
2017-Apr-16 17:27N 39°03' E 009°22'614.1
2017-Apr-16 17:00N 39°07' E 009°15'713.9
2017-Apr-16 16:30N 39°10' E 009°07'3 4.7
2017-Apr-16 15:58N 39°13' E 009°06'0 0.0
2017-Apr-16 15:28N 39°13' E 009°06'0 0.0
2017-Apr-16 14:58N 39°13' E 009°06'0 0.0
2017-Apr-16 14:28N 39°13' E 009°06'0 0.0
2017-Apr-16 13:28N 39°13' E 009°06'0 0.0
2017-Apr-16 12:58N 39°13' E 009°06'0 0.0
2017-Apr-16 12:28N 39°13' E 009°06'0 0.0
2017-Apr-16 11:58N 39°13' E 009°06'0 0.0
2017-Apr-16 11:28N 39°13' E 009°06'0 0.0
2017-Apr-16 10:58N 39°13' E 009°06'0 0.0
2017-Apr-16 10:28N 39°13' E 009°06'0 0.0
2017-Apr-16 09:49N 39°13' E 009°06'0 0.0
2017-Apr-16 09:28N 39°13' E 009°06'0 0.0
2017-Apr-16 08:58N 39°13' E 009°06'0 0.0
2017-Apr-16 08:28N 39°13' E 009°06'0 0.0
2017-Apr-16 07:58N 39°13' E 009°06'0 0.0
2017-Apr-16 07:28N 39°13' E 009°06'0 0.0
2017-Apr-16 06:58N 39°13' E 009°06'0 0.0
2017-Apr-16 06:28N 39°13' E 009°06'0 0.0
2017-Apr-16 05:58N 39°13' E 009°06'0 0.0
2017-Apr-16 05:30N 39°13' E 009°06'2 3.5
2017-Apr-16 05:00N 39°11' E 009°07'712.9
2017-Apr-16 04:30N 39°04' E 009°08'714.5
2017-Apr-16 04:00N 38°57' E 009°07'814.9
2017-Apr-16 03:29N 38°51' E 009°02'815.1
2017-Apr-16 02:56N 38°47' E 008°52'715.2
2017-Apr-16 02:27N 38°47' E 008°43'261 8.8
2017-Apr-14 20:50N 43°06' E 009°24'514.4
2017-Apr-14 20:29N 43°08' E 009°30'714.5
2017-Apr-14 20:01N 43°11' E 009°39'714.1
2017-Apr-14 19:30N 43°15' E 009°47'714.4
2017-Apr-14 19:01N 43°18' E 009°56'714.2
2017-Apr-14 18:31N 43°23' E 010°03'714.3
2017-Apr-14 18:01N 43°28' E 010°09'713.1
2017-Apr-14 17:30N 43°32' E 010°17'1 2.7
2017-Apr-14 17:00N 43°33' E 010°18'0 0.0
2017-Apr-14 16:27N 43°33' E 010°18'0 0.0
2017-Apr-14 15:57N 43°33' E 010°18'0 0.0
2017-Apr-14 15:24N 43°33' E 010°18'0 0.0
2017-Apr-14 15:00N 43°33' E 010°18'0 0.0
2017-Apr-14 14:27N 43°33' E 010°18'0 0.0
2017-Apr-14 13:30N 43°33' E 010°18'0 0.0
2017-Apr-14 13:00N 43°33' E 010°18'0 0.0
2017-Apr-14 12:24N 43°33' E 010°18'0 0.0
2017-Apr-14 11:57N 43°33' E 010°18'0 0.0
2017-Apr-14 11:30N 43°33' E 010°18'0 0.0
2017-Apr-14 10:57N 43°33' E 010°18'0 0.0
2017-Apr-14 10:30N 43°33' E 010°18'0 0.0
2017-Apr-14 09:48N 43°33' E 010°18'0 0.0
2017-Apr-14 09:27N 43°33' E 010°18'0 0.0
2017-Apr-14 08:54N 43°33' E 010°18'0 0.0
2017-Apr-14 08:27N 43°33' E 010°18'0 0.0
2017-Apr-14 07:57N 43°33' E 010°18'0 0.0
2017-Apr-14 07:27N 43°33' E 010°18'0 0.0
2017-Apr-14 06:57N 43°33' E 010°18'0 0.0
2017-Apr-14 06:27N 43°33' E 010°18'0 0.0
2017-Apr-14 05:55N 43°33' E 010°18'0 1.1
2017-Apr-14 05:30N 43°33' E 010°17'3 5.6
2017-Apr-14 05:00N 43°31' E 010°15'510.7
2017-Apr-14 04:31N 43°29' E 010°08'815.3
2017-Apr-14 04:01N 43°30' E 009°57'815.6
2017-Apr-14 03:31N 43°31' E 009°47'816.2
2017-Apr-14 03:01N 43°32' E 009°35'816.3
2017-Apr-14 02:31N 43°34' E 009°24'816.2
2017-Apr-14 02:00N 43°35' E 009°13'815.7
2017-Apr-14 01:31N 43°36' E 009°03'815.6
2017-Apr-14 01:01N 43°37' E 008°52'816.0
2017-Apr-14 00:30N 43°38' E 008°41'2216.0
2017-Apr-13 23:06N 43°40' E 008°10'615.8
2017-Apr-13 22:44N 43°41' E 008°02'715.7
2017-Apr-13 22:16N 43°42' E 007°52'416.0
2017-Apr-13 22:00N 43°42' E 007°46'816.2
2017-Apr-13 21:30N 43°44' E 007°35'6 0.3
2017-Apr-13 04:09N 43°43' E 007°27'211.2
2017-Apr-13 03:59N 43°41' E 007°27'613.4
2017-Apr-13 03:31N 43°35' E 007°24'714.1
2017-Apr-13 03:00N 43°29' E 007°19'714.6
2017-Apr-13 02:31N 43°22' E 007°15'814.6
2017-Apr-13 01:59N 43°15' E 007°10'714.3
2017-Apr-13 01:30N 43°10' E 007°04'7710.0
2017-Apr-12 17:48N 43°14' E 005°18'5 9.8
2017-Apr-12 17:18N 43°18' E 005°21'0 0.3
2017-Apr-12 16:47N 43°18' E 005°22'0 0.0
2017-Apr-12 16:26N 43°18' E 005°22'0 0.0
2017-Apr-12 15:59N 43°18' E 005°22'0 0.0
2017-Apr-12 14:26N 43°18' E 005°22'0 0.0
2017-Apr-12 12:41N 43°18' E 005°22'0 0.0
2017-Apr-12 07:56N 43°18' E 005°22'0 0.0
2017-Apr-12 07:26N 43°18' E 005°22'0 0.0
2017-Apr-12 06:05N 43°18' E 005°22'0 0.0
2017-Apr-12 05:57N 43°18' E 005°22'0 0.9
2017-Apr-12 05:30N 43°18' E 005°21'3 6.9
2017-Apr-12 05:00N 43°15' E 005°18'2515.0
2017-Apr-12 03:20N 42°50' E 005°11'223 9.0
2017-Apr-11 02:41N 39°20' E 003°33'316.4
2017-Apr-11 02:30N 39°19' E 003°30'816.3
2017-Apr-11 02:00N 39°14' E 003°21'816.2
2017-Apr-11 01:30N 39°09' E 003°13'816.1
2017-Apr-11 01:00N 39°05' E 003°04'816.4
2017-Apr-11 00:30N 39°01' E 002°55'816.6
2017-Apr-11 00:00N 38°57' E 002°46'816.5
2017-Apr-10 23:30N 38°53' E 002°36'816.5
2017-Apr-10 23:00N 38°49' E 002°27'816.4
2017-Apr-10 22:30N 38°45' E 002°18'816.3
2017-Apr-10 21:59N 38°41' E 002°08'816.4
2017-Apr-10 21:30N 38°37' E 001°59'916.7
2017-Apr-10 20:57N 38°33' E 001°49'1916.9
2017-Apr-10 19:49N 38°24' E 001°27'617.4
2017-Apr-10 19:29N 38°21' E 001°21'10916.7
2017-Apr-10 12:58N 37°31' W 000°42'  
Track history (hours):
 
Tides and Currents Weather Stations Pressure Air Temp Water Temp Dewpoint Dewpoint Depression Visibility Wind Speed Wind Dir Waves Ship Positions

Silver Wind

Operator: V Ships Leisure

Last reported at 2017-Apr-19 21:08 UTC. Time now 2017-Apr-24 11:20 UTC.
Position N 38°39' E 015°33'.

Length 156 m; draft 5.7 m.

Type: Passenger vessel. MMSI: 308814000.

Date/timePositionNaut miles runAvg speedWind from/ knotsBaromVisibWave heightAir tempDewpointWater temp
2017-Apr-19 21:08N 38°39' E 015°33'215.9
2017-Apr-19 20:59N 38°37' E 015°34'815.9
2017-Apr-19 20:29N 38°29' E 015°37'816.2
2017-Apr-19 20:01N 38°22' E 015°41'713.9
2017-Apr-19 19:31N 38°15' E 015°40'714.4
2017-Apr-19 19:00N 38°09' E 015°37'815.2
2017-Apr-19 18:31N 38°01' E 015°35'714.5
2017-Apr-19 18:00N 37°54' E 015°33'713.9
2017-Apr-19 17:30N 37°47' E 015°31'714.0
2017-Apr-19 16:59N 37°40' E 015°29'815.2
2017-Apr-19 16:27N 37°32' E 015°27'715.4
2017-Apr-19 16:00N 37°26' E 015°26'71 4.4
2017-Apr-18 23:48N 36°19' E 014°55'411.9
2017-Apr-18 23:30N 36°16' E 014°53'1411.3
2017-Apr-18 22:17N 36°05' E 014°43'311.5
2017-Apr-18 22:00N 36°03' E 014°41'611.5
2017-Apr-18 21:30N 35°58' E 014°37'510.7
2017-Apr-18 21:00N 35°54' E 014°32'0 0.0
2017-Apr-18 05:31N 35°54' E 014°31'5 9.1
2017-Apr-18 05:00N 35°58' E 014°33'817.2
2017-Apr-18 04:30N 36°05' E 014°26'917.3
2017-Apr-18 04:00N 36°11' E 014°18'917.4
2017-Apr-18 03:30N 36°17' E 014°11'917.7
2017-Apr-18 03:00N 36°23' E 014°03'12617.1
2017-Apr-17 19:40N 37°53' E 012°13'317.4
2017-Apr-17 19:29N 37°56' E 012°13'913.8
2017-Apr-17 18:51N 38°03' E 012°20'617.2
2017-Apr-17 18:30N 38°01' E 012°27'3 5.1
2017-Apr-17 18:00N 38°01' E 012°30'0 0.0
2017-Apr-17 17:25N 38°01' E 012°30'0 0.0
2017-Apr-17 16:49N 38°01' E 012°30'0 0.0
2017-Apr-17 16:10N 38°01' E 012°30'0 0.0
2017-Apr-17 15:52N 38°01' E 012°30'0 0.0
2017-Apr-17 15:22N 38°01' E 012°30'0 0.0
2017-Apr-17 14:55N 38°01' E 012°30'0 0.0
2017-Apr-17 14:28N 38°01' E 012°30'0 0.0
2017-Apr-17 13:28N 38°01' E 012°30'0 0.0
2017-Apr-17 12:58N 38°01' E 012°30'160 8.2
2017-Apr-16 17:27N 39°03' E 009°22'614.1
2017-Apr-16 17:00N 39°07' E 009°15'713.9
2017-Apr-16 16:30N 39°10' E 009°07'3 4.7
2017-Apr-16 15:58N 39°13' E 009°06'0 0.0
2017-Apr-16 15:28N 39°13' E 009°06'0 0.0
2017-Apr-16 14:58N 39°13' E 009°06'0 0.0
2017-Apr-16 14:28N 39°13' E 009°06'0 0.0
2017-Apr-16 13:28N 39°13' E 009°06'0 0.0
2017-Apr-16 12:58N 39°13' E 009°06'0 0.0
2017-Apr-16 12:28N 39°13' E 009°06'0 0.0
2017-Apr-16 11:58N 39°13' E 009°06'0 0.0
2017-Apr-16 11:28N 39°13' E 009°06'0 0.0
2017-Apr-16 10:58N 39°13' E 009°06'0 0.0
2017-Apr-16 10:28N 39°13' E 009°06'0 0.0
2017-Apr-16 09:49N 39°13' E 009°06'0 0.0
2017-Apr-16 09:28N 39°13' E 009°06'0 0.0
2017-Apr-16 08:58N 39°13' E 009°06'0 0.0
2017-Apr-16 08:28N 39°13' E 009°06'0 0.0
2017-Apr-16 07:58N 39°13' E 009°06'0 0.0
2017-Apr-16 07:28N 39°13' E 009°06'0 0.0
2017-Apr-16 06:58N 39°13' E 009°06'0 0.0
2017-Apr-16 06:28N 39°13' E 009°06'0 0.0
2017-Apr-16 05:58N 39°13' E 009°06'0 0.0
2017-Apr-16 05:30N 39°13' E 009°06'2 3.5
2017-Apr-16 05:00N 39°11' E 009°07'712.9
2017-Apr-16 04:30N 39°04' E 009°08'714.5
2017-Apr-16 04:00N 38°57' E 009°07'814.9
2017-Apr-16 03:29N 38°51' E 009°02'815.1
2017-Apr-16 02:56N 38°47' E 008°52'715.2
2017-Apr-16 02:27N 38°47' E 008°43'261 8.8
2017-Apr-14 20:50N 43°06' E 009°24'514.4
2017-Apr-14 20:29N 43°08' E 009°30'714.5
2017-Apr-14 20:01N 43°11' E 009°39'714.1
2017-Apr-14 19:30N 43°15' E 009°47'714.4
2017-Apr-14 19:01N 43°18' E 009°56'714.2
2017-Apr-14 18:31N 43°23' E 010°03'714.3
2017-Apr-14 18:01N 43°28' E 010°09'713.1
2017-Apr-14 17:30N 43°32' E 010°17'1 2.7
2017-Apr-14 17:00N 43°33' E 010°18'0 0.0
2017-Apr-14 16:27N 43°33' E 010°18'0 0.0
2017-Apr-14 15:57N 43°33' E 010°18'0 0.0
2017-Apr-14 15:24N 43°33' E 010°18'0 0.0
2017-Apr-14 15:00N 43°33' E 010°18'0 0.0
2017-Apr-14 14:27N 43°33' E 010°18'0 0.0
2017-Apr-14 13:30N 43°33' E 010°18'0 0.0
2017-Apr-14 13:00N 43°33' E 010°18'0 0.0
2017-Apr-14 12:24N 43°33' E 010°18'0 0.0
2017-Apr-14 11:57N 43°33' E 010°18'0 0.0
2017-Apr-14 11:30N 43°33' E 010°18'0 0.0
2017-Apr-14 10:57N 43°33' E 010°18'0 0.0
2017-Apr-14 10:30N 43°33' E 010°18'0 0.0
2017-Apr-14 09:48N 43°33' E 010°18'0 0.0
2017-Apr-14 09:27N 43°33' E 010°18'0 0.0
2017-Apr-14 08:54N 43°33' E 010°18'0 0.0
2017-Apr-14 08:27N 43°33' E 010°18'0 0.0
2017-Apr-14 07:57N 43°33' E 010°18'0 0.0
2017-Apr-14 07:27N 43°33' E 010°18'0 0.0
2017-Apr-14 06:57N 43°33' E 010°18'0 0.0
2017-Apr-14 06:27N 43°33' E 010°18'0 0.0
2017-Apr-14 05:55N 43°33' E 010°18'0 1.1
2017-Apr-14 05:30N 43°33' E 010°17'3 5.6
2017-Apr-14 05:00N 43°31' E 010°15'510.7
2017-Apr-14 04:31N 43°29' E 010°08'815.3
2017-Apr-14 04:01N 43°30' E 009°57'815.6
2017-Apr-14 03:31N 43°31' E 009°47'816.2
2017-Apr-14 03:01N 43°32' E 009°35'816.3
2017-Apr-14 02:31N 43°34' E 009°24'816.2
2017-Apr-14 02:00N 43°35' E 009°13'815.7
2017-Apr-14 01:31N 43°36' E 009°03'815.6
2017-Apr-14 01:01N 43°37' E 008°52'816.0
2017-Apr-14 00:30N 43°38' E 008°41'2216.0
2017-Apr-13 23:06N 43°40' E 008°10'615.8
2017-Apr-13 22:44N 43°41' E 008°02'715.7
2017-Apr-13 22:16N 43°42' E 007°52'416.0
2017-Apr-13 22:00N 43°42' E 007°46'816.2
2017-Apr-13 21:30N 43°44' E 007°35'6 0.3
2017-Apr-13 04:09N 43°43' E 007°27'211.2
2017-Apr-13 03:59N 43°41' E 007°27'613.4
2017-Apr-13 03:31N 43°35' E 007°24'714.1
2017-Apr-13 03:00N 43°29' E 007°19'714.6
2017-Apr-13 02:31N 43°22' E 007°15'814.6
2017-Apr-13 01:59N 43°15' E 007°10'714.3
2017-Apr-13 01:30N 43°10' E 007°04'7710.0
2017-Apr-12 17:48N 43°14' E 005°18'5 9.8
2017-Apr-12 17:18N 43°18' E 005°21'0 0.3
2017-Apr-12 16:47N 43°18' E 005°22'0 0.0
2017-Apr-12 16:26N 43°18' E 005°22'0 0.0
2017-Apr-12 15:59N 43°18' E 005°22'0 0.0
2017-Apr-12 14:26N 43°18' E 005°22'0 0.0
2017-Apr-12 12:41N 43°18' E 005°22'0 0.0
2017-Apr-12 07:56N 43°18' E 005°22'0 0.0
2017-Apr-12 07:26N 43°18' E 005°22'0 0.0
2017-Apr-12 06:05N 43°18' E 005°22'0 0.0
2017-Apr-12 05:57N 43°18' E 005°22'0 0.9
2017-Apr-12 05:30N 43°18' E 005°21'3 6.9
2017-Apr-12 05:00N 43°15' E 005°18'2515.0
2017-Apr-12 03:20N 42°50' E 005°11'223 9.0
2017-Apr-11 02:41N 39°20' E 003°33'316.4
2017-Apr-11 02:30N 39°19' E 003°30'816.3
2017-Apr-11 02:00N 39°14' E 003°21'816.2
2017-Apr-11 01:30N 39°09' E 003°13'816.1
2017-Apr-11 01:00N 39°05' E 003°04'816.4
2017-Apr-11 00:30N 39°01' E 002°55'816.6
2017-Apr-11 00:00N 38°57' E 002°46'816.5
2017-Apr-10 23:30N 38°53' E 002°36'816.5
2017-Apr-10 23:00N 38°49' E 002°27'816.4
2017-Apr-10 22:30N 38°45' E 002°18'816.3
2017-Apr-10 21:59N 38°41' E 002°08'816.4
2017-Apr-10 21:30N 38°37' E 001°59'916.7
2017-Apr-10 20:57N 38°33' E 001°49'1916.9
2017-Apr-10 19:49N 38°24' E 001°27'617.4
2017-Apr-10 19:29N 38°21' E 001°21'10916.7
2017-Apr-10 12:58N 37°31' W 000°42'  

Dump ship's entire track history